Time;durP1;ratioP1;P1;durP2;ratioP2;P2;SDS_P1;SDS_P2;PMS_P1;PMS_P2;Temp;Humidity;BMP_temperature;BMP_pressure;BME280_temperature;BME280_humidity;BME280_pressure;Samples;Min_cycle;Max_cycle;Signal;HPM_P1;HPM_P2
2023/06/03 00:01:27;;;;;;;12.30;3.23;;;17.10;38.40;;;;;;5088902;28;20469;-73
2023/06/03 00:04:14;;;;;;;12.33;3.47;;;17.10;38.40;;;;;;5084445;28;20477;-72
2023/06/03 00:07:00;;;;;;;15.73;3.13;;;17.10;38.20;;;;;;5090268;28;20437;-73
2023/06/03 00:09:45;;;;;;;10.93;4.10;;;17.10;38.30;;;;;;5090412;28;20619;-73
2023/06/03 00:12:32;;;;;;;6.43;3.50;;;17.00;39.50;;;;;;5088300;28;20499;-73
2023/06/03 00:15:17;;;;;;;10.23;3.67;;;16.90;40.20;;;;;;5092169;28;20767;-73
2023/06/03 00:18:04;;;;;;;10.83;4.40;;;16.90;40.70;;;;;;5089424;28;20574;-73
2023/06/03 00:20:49;;;;;;;11.17;4.10;;;16.90;40.00;;;;;;5088670;28;20453;-73
2023/06/03 00:23:34;;;;;;;14.67;3.83;;;16.80;40.80;;;;;;5092667;28;21018;-73
2023/06/03 00:26:20;;;;;;;10.47;3.97;;;16.90;41.00;;;;;;5092174;28;20993;-73
2023/06/03 00:29:07;;;;;;;13.53;4.13;;;16.80;41.50;;;;;;5087272;28;20419;-73
2023/06/03 00:31:53;;;;;;;12.47;4.10;;;16.80;42.30;;;;;;5092148;28;20927;-73
2023/06/03 00:34:38;;;;;;;10.80;3.60;;;16.80;42.40;;;;;;5088765;28;20413;-72
2023/06/03 00:37:24;;;;;;;13.23;3.63;;;16.70;42.70;;;;;;5082231;28;20421;-73
2023/06/03 00:40:11;;;;;;;14.73;3.57;;;16.70;43.20;;;;;;5086463;28;20933;-73
2023/06/03 00:42:56;;;;;;;10.37;2.90;;;16.70;43.30;;;;;;5081044;28;20955;-73
2023/06/03 00:45:43;;;;;;;12.63;4.00;;;16.70;43.20;;;;;;5089624;28;20801;-73
2023/06/03 00:48:29;;;;;;;7.83;3.33;;;16.60;43.90;;;;;;5088614;28;20952;-72
2023/06/03 00:51:16;;;;;;;10.30;3.30;;;16.60;44.50;;;;;;5089184;28;20447;-73
2023/06/03 00:54:01;;;;;;;6.83;3.30;;;16.60;44.50;;;;;;5083509;28;20433;-72
2023/06/03 00:56:48;;;;;;;7.90;3.43;;;16.60;44.70;;;;;;5092599;28;20420;-73
2023/06/03 00:59:33;;;;;;;10.20;4.50;;;16.60;44.70;;;;;;5092628;28;20554;-73
2023/06/03 01:02:20;;;;;;;7.07;3.57;;;16.60;45.60;;;;;;5085626;28;20465;-73
2023/06/03 01:05:07;;;;;;;12.80;3.97;;;16.60;45.90;;;;;;5091645;28;20471;-73
2023/06/03 01:08:04;;;;;;;11.10;3.93;;;16.60;46.60;;;;;;5090145;28;20912;-73
2023/06/03 01:11:00;;;;;;;12.70;3.40;;;16.60;46.00;;;;;;5089640;28;20443;-73
2023/06/03 01:13:52;;;;;;;9.30;3.50;;;16.60;46.30;;;;;;5086900;28;20433;-73
2023/06/03 01:16:44;;;;;;;6.17;3.23;;;16.50;46.60;;;;;;5088481;28;20949;-73
2023/06/03 01:19:39;;;;;;;11.00;3.20;;;16.50;47.00;;;;;;5091613;28;20431;-73
2023/06/03 01:22:26;;;;;;;12.40;3.37;;;16.40;46.90;;;;;;5082220;28;20497;-73
2023/06/03 01:25:15;;;;;;;9.13;3.50;;;16.40;47.50;;;;;;5088852;28;21032;-72
2023/06/03 01:28:08;;;;;;;9.67;3.60;;;16.40;48.40;;;;;;5111190;27;20600;-71
2023/06/03 01:30:55;;;;;;;11.03;3.63;;;16.50;47.80;;;;;;5104069;28;20461;-70
2023/06/03 01:33:41;;;;;;;9.03;3.30;;;16.40;48.10;;;;;;5109216;28;20446;-70
2023/06/03 01:36:26;;;;;;;6.40;3.00;;;16.30;48.60;;;;;;5105067;28;20772;-70
2023/06/03 01:39:12;;;;;;;8.53;3.40;;;16.40;49.50;;;;;;5106366;28;20444;-71
2023/06/03 01:41:59;;;;;;;15.40;3.77;;;16.30;49.40;;;;;;5098569;28;21186;-70
2023/06/03 01:44:46;;;;;;;7.73;3.50;;;16.30;49.40;;;;;;5107340;28;20464;-71
2023/06/03 01:47:32;;;;;;;8.90;3.60;;;16.20;49.90;;;;;;5107893;28;20463;-71
2023/06/03 01:50:18;;;;;;;9.40;3.40;;;16.20;50.80;;;;;;5106133;28;20448;-70
2023/06/03 01:53:03;;;;;;;11.60;3.77;;;16.20;50.40;;;;;;5098631;28;20453;-71
2023/06/03 01:55:49;;;;;;;13.17;4.40;;;16.30;49.80;;;;;;5101696;28;20450;-71
2023/06/03 01:58:34;;;;;;;8.97;3.80;;;16.30;49.40;;;;;;5109633;28;20449;-70
2023/06/03 02:01:22;;;;;;;7.27;3.77;;;16.40;50.00;;;;;;5103606;28;20863;-71
2023/06/03 02:04:07;;;;;;;6.83;3.83;;;16.30;49.40;;;;;;5102350;28;20441;-70
2023/06/03 02:06:54;;;;;;;10.03;3.47;;;16.20;50.40;;;;;;5107518;28;20579;-70
2023/06/03 02:09:39;;;;;;;8.90;3.57;;;16.20;50.80;;;;;;5107323;28;20433;-70
2023/06/03 02:12:24;;;;;;;8.83;3.63;;;16.20;50.90;;;;;;5102983;28;21055;-70
2023/06/03 02:15:10;;;;;;;10.83;3.60;;;16.10;52.60;;;;;;5108511;28;20431;-70
2023/06/03 02:17:57;;;;;;;9.87;3.33;;;16.10;52.30;;;;;;5105781;28;20436;-70
2023/06/03 02:20:42;;;;;;;9.00;4.57;;;16.10;52.10;;;;;;5100659;28;20469;-71
2023/06/03 02:23:27;;;;;;;9.13;3.70;;;16.00;52.50;;;;;;5108920;28;20521;-71
2023/06/03 02:26:13;;;;;;;11.90;4.37;;;16.00;52.90;;;;;;5110904;28;20456;-70
2023/06/03 02:28:59;;;;;;;7.63;3.40;;;16.00;53.70;;;;;;5109624;28;20436;-70
2023/06/03 02:31:45;;;;;;;7.03;3.57;;;16.00;53.70;;;;;;5107129;28;20828;-70
2023/06/03 02:34:31;;;;;;;7.20;3.37;;;15.90;53.90;;;;;;5109425;28;20590;-70
2023/06/03 02:37:17;;;;;;;15.03;4.03;;;16.00;53.50;;;;;;5103874;28;20495;-70
2023/06/03 02:40:05;;;;;;;16.20;4.00;;;15.90;54.20;;;;;;5090955;28;20573;-71
2023/06/03 02:42:50;;;;;;;12.03;3.80;;;16.00;54.10;;;;;;5095550;28;20420;-71
2023/06/03 02:45:36;;;;;;;7.93;3.93;;;16.00;54.20;;;;;;5088024;28;20415;-72
2023/06/03 02:48:21;;;;;;;10.40;3.80;;;15.90;54.50;;;;;;5095793;28;21010;-70
2023/06/03 02:51:08;;;;;;;10.57;4.07;;;15.90;54.90;;;;;;5083394;28;20459;-71
2023/06/03 02:53:53;;;;;;;13.60;4.03;;;15.90;55.50;;;;;;5098059;28;20445;-70
2023/06/03 02:56:39;;;;;;;13.67;3.97;;;15.90;55.60;;;;;;5099495;28;20445;-71
2023/06/03 02:59:24;;;;;;;10.30;3.97;;;15.80;56.10;;;;;;5083532;28;20446;-71
2023/06/03 03:02:10;;;;;;;9.40;4.20;;;15.70;56.20;;;;;;5086680;28;21152;-70
2023/06/03 03:04:55;;;;;;;15.93;4.00;;;15.80;55.60;;;;;;5100445;28;20928;-71
2023/06/03 03:07:43;;;;;;;7.10;4.47;;;15.70;56.10;;;;;;5097655;28;20515;-71
2023/06/03 03:10:28;;;;;;;13.70;3.80;;;15.70;56.10;;;;;;5083509;28;20466;-71
2023/06/03 03:13:14;;;;;;;9.20;3.80;;;15.70;56.70;;;;;;5093741;28;20619;-70
2023/06/03 03:15:59;;;;;;;17.20;4.50;;;15.70;57.40;;;;;;5101099;28;20423;-70
2023/06/03 03:18:45;;;;;;;12.97;4.10;;;15.70;56.80;;;;;;5090053;28;20667;-71
2023/06/03 03:21:31;;;;;;;8.47;3.90;;;15.60;57.30;;;;;;5080096;28;20851;-70
2023/06/03 03:24:19;;;;;;;13.70;5.57;;;15.60;57.60;;;;;;5089108;28;20465;-71
2023/06/03 03:27:05;;;;;;;14.97;4.50;;;15.60;58.20;;;;;;5101007;28;20840;-71
2023/06/03 03:29:52;;;;;;;7.70;4.40;;;15.60;58.50;;;;;;5089059;28;20420;-70
2023/06/03 03:32:37;;;;;;;7.37;3.43;;;15.50;58.70;;;;;;5090111;28;20469;-71
2023/06/03 03:35:23;;;;;;;12.37;4.00;;;15.50;58.70;;;;;;5090615;28;20413;-70
2023/06/03 03:38:09;;;;;;;9.93;3.83;;;15.50;58.70;;;;;;5092818;28;20558;-70
2023/06/03 03:40:56;;;;;;;9.40;3.60;;;15.40;59.30;;;;;;5083039;28;20889;-71
2023/06/03 03:43:42;;;;;;;9.30;5.27;;;15.40;59.60;;;;;;5098467;28;21042;-70
2023/06/03 03:46:28;;;;;;;9.23;4.13;;;15.40;59.70;;;;;;5097051;28;20835;-71
2023/06/03 03:49:20;;;;;;;10.97;3.83;;;15.50;60.00;;;;;;5089427;28;20438;-70
2023/06/03 03:52:06;;;;;;;7.37;4.37;;;15.50;60.40;;;;;;5088912;28;20600;-70
2023/06/03 03:54:52;;;;;;;11.70;4.30;;;15.50;59.80;;;;;;5089984;28;20428;-70
2023/06/03 03:57:39;;;;;;;8.17;4.00;;;15.50;59.30;;;;;;5087059;28;20850;-70
2023/06/03 04:00:24;;;;;;;9.63;4.07;;;15.50;60.00;;;;;;5083570;28;21106;-71
2023/06/03 04:03:11;;;;;;;13.83;4.07;;;15.50;60.30;;;;;;5084077;28;20491;-71
2023/06/03 04:05:57;;;;;;;9.30;4.10;;;15.40;60.40;;;;;;5085376;28;20567;-71
2023/06/03 04:08:45;;;;;;;7.63;3.97;;;15.40;61.20;;;;;;5090814;28;21002;-71
2023/06/03 04:11:36;;;;;;;10.70;4.40;;;15.40;61.20;;;;;;5079098;28;20451;-71
2023/06/03 04:14:44;;;;;;;5.07;3.43;;;15.30;61.50;;;;;;5088995;28;20451;-71
2023/06/03 04:17:30;;;;;;;9.40;4.77;;;15.20;62.90;;;;;;5094200;28;20433;-70
2023/06/03 04:20:32;;;;;;;9.17;3.47;;;15.10;64.60;;;;;;5089709;28;21023;-70
2023/06/03 04:23:20;;;;;;;10.87;4.27;;;15.20;65.50;;;;;;5087597;28;21436;-71
2023/06/03 04:26:05;;;;;;;11.87;3.97;;;15.10;65.80;;;;;;5087474;28;20466;-70
2023/06/03 04:28:50;;;;;;;7.53;3.47;;;15.00;67.90;;;;;;5090925;28;20458;-71
2023/06/03 04:31:37;;;;;;;10.37;3.77;;;14.90;70.10;;;;;;5087883;28;21090;-70
2023/06/03 04:34:27;;;;;;;9.50;4.43;;;14.90;69.40;;;;;;5097993;28;20966;-70
2023/06/03 04:37:13;;;;;;;11.23;4.73;;;14.90;68.40;;;;;;5096443;28;20440;-71
2023/06/03 04:40:01;;;;;;;12.03;4.10;;;15.00;67.80;;;;;;5082839;28;20945;-70
2023/06/03 04:42:47;;;;;;;10.27;4.73;;;15.10;68.00;;;;;;5088847;28;20416;-72
2023/06/03 04:45:33;;;;;;;12.77;4.73;;;15.10;67.80;;;;;;5093757;28;20438;-71
2023/06/03 04:48:22;;;;;;;8.00;3.90;;;15.20;67.90;;;;;;5091807;28;20481;-71
2023/06/03 04:51:07;;;;;;;9.83;5.00;;;15.10;67.80;;;;;;5087807;28;20456;-71
2023/06/03 04:53:53;;;;;;;16.00;4.67;;;15.40;66.40;;;;;;5096750;28;20460;-71
2023/06/03 04:56:39;;;;;;;10.80;4.40;;;15.50;65.80;;;;;;5090550;28;20412;-70
2023/06/03 04:59:24;;;;;;;10.60;4.27;;;15.30;65.70;;;;;;5084613;28;20446;-70
2023/06/03 05:02:10;;;;;;;9.87;4.30;;;15.40;66.00;;;;;;5093350;28;20502;-70
2023/06/03 05:04:57;;;;;;;15.27;5.00;;;15.40;65.60;;;;;;5094627;28;20488;-70
2023/06/03 05:07:42;;;;;;;10.43;4.53;;;15.50;65.00;;;;;;5083165;28;21114;-71
2023/06/03 05:10:28;;;;;;;6.93;3.70;;;15.70;65.00;;;;;;5088146;28;20437;-70
2023/06/03 05:13:13;;;;;;;7.83;4.17;;;15.70;65.20;;;;;;5091696;28;20445;-71
2023/06/03 05:15:59;;;;;;;7.33;4.20;;;15.80;63.50;;;;;;5088158;28;20459;-70
2023/06/03 05:18:46;;;;;;;9.30;4.40;;;15.90;62.90;;;;;;5085167;28;20420;-70
2023/06/03 05:21:32;;;;;;;12.30;4.63;;;16.00;62.20;;;;;;5061594;22;20489;-86
2023/06/03 05:24:18;;;;;;;9.40;4.40;;;16.00;62.70;;;;;;5015120;28;20559;-86
2023/06/03 05:27:04;;;;;;;12.63;4.70;;;16.10;62.60;;;;;;5017403;28;20495;-85
2023/06/03 05:29:50;;;;;;;13.33;4.23;;;16.20;61.90;;;;;;5010138;28;20822;-85
2023/06/03 05:32:35;;;;;;;8.50;4.03;;;16.30;61.90;;;;;;5005872;28;20497;-86
2023/06/03 05:35:21;;;;;;;12.00;4.70;;;16.30;60.20;;;;;;5020682;28;20837;-87
2023/06/03 05:38:09;;;;;;;10.13;4.77;;;16.40;60.90;;;;;;5007521;28;20442;-85
2023/06/03 05:40:54;;;;;;;7.17;4.17;;;16.40;61.00;;;;;;5012307;28;20446;-86
2023/06/03 05:43:40;;;;;;;7.13;4.20;;;16.60;61.70;;;;;;5008941;28;21134;-86
2023/06/03 05:46:25;;;;;;;7.77;4.97;;;16.60;61.00;;;;;;5016077;28;20444;-86
2023/06/03 05:49:11;;;;;;;8.90;4.20;;;16.60;60.00;;;;;;5011934;28;20527;-85
2023/06/03 05:51:56;;;;;;;6.63;4.00;;;16.70;60.20;;;;;;5010070;28;20981;-85
2023/06/03 05:54:43;;;;;;;13.23;4.20;;;16.80;59.80;;;;;;5011481;28;20436;-86
2023/06/03 05:57:29;;;;;;;7.83;4.20;;;16.80;59.30;;;;;;5019093;28;20437;-86
2023/06/03 06:00:15;;;;;;;5.33;4.13;;;16.90;59.70;;;;;;5003326;28;20464;-85
2023/06/03 06:03:00;;;;;;;9.40;4.53;;;16.90;58.00;;;;;;5012669;28;20432;-85
2023/06/03 06:05:46;;;;;;;15.20;4.30;;;16.90;59.50;;;;;;5005971;28;21008;-86
2023/06/03 06:08:32;;;;;;;6.70;4.13;;;16.90;58.90;;;;;;5015354;28;20537;-86
2023/06/03 06:11:19;;;;;;;13.63;4.90;;;17.00;59.80;;;;;;5010458;28;20438;-86
2023/06/03 06:14:04;;;;;;;9.00;4.80;;;17.10;56.90;;;;;;5012365;28;20443;-85
2023/06/03 06:16:52;;;;;;;10.13;5.07;;;17.20;56.70;;;;;;5011284;28;20447;-86
2023/06/03 06:19:37;;;;;;;11.43;4.40;;;17.30;57.30;;;;;;5013365;28;20899;-86
2023/06/03 06:22:23;;;;;;;6.80;3.70;;;17.30;55.20;;;;;;5016157;28;20469;-86
2023/06/03 06:25:10;;;;;;;6.30;4.40;;;17.40;55.20;;;;;;5014745;28;20456;-85
2023/06/03 06:27:57;;;;;;;10.23;4.40;;;17.40;53.60;;;;;;5014512;28;20470;-86
2023/06/03 06:30:44;;;;;;;12.23;4.30;;;17.50;53.70;;;;;;5012032;28;20783;-86
2023/06/03 06:33:30;;;;;;;8.30;4.27;;;17.60;54.40;;;;;;5014501;28;20473;-86
2023/06/03 06:36:29;;;;;;;10.17;4.70;;;17.70;54.50;;;;;;5012515;28;20545;-85
2023/06/03 06:39:45;;;;;;;7.63;4.00;;;17.80;52.50;;;;;;5010859;28;20538;-85
2023/06/03 06:42:33;;;;;;;7.23;4.33;;;17.90;51.10;;;;;;5015070;28;20441;-86
2023/06/03 06:45:23;;;;;;;13.33;4.53;;;18.00;51.20;;;;;;5017932;28;20618;-86
2023/06/03 06:48:10;;;;;;;13.13;4.00;;;18.00;51.50;;;;;;5011785;28;20466;-85
2023/06/03 06:50:58;;;;;;;8.40;3.70;;;18.10;50.40;;;;;;5013322;28;20445;-86
2023/06/03 06:53:47;;;;;;;9.27;3.90;;;18.20;47.20;;;;;;5018006;28;20687;-86
2023/06/03 06:56:35;;;;;;;12.30;4.30;;;18.20;48.30;;;;;;5018938;28;20458;-85
2023/06/03 06:59:21;;;;;;;8.30;4.10;;;18.20;51.40;;;;;;5005001;28;20446;-85
2023/06/03 07:02:08;;;;;;;7.23;3.87;;;18.30;47.10;;;;;;5009084;28;20501;-86
2023/06/03 07:04:53;;;;;;;7.57;4.30;;;18.30;47.50;;;;;;5017819;28;20457;-86
2023/06/03 07:07:40;;;;;;;6.93;3.60;;;18.30;47.70;;;;;;5012164;28;20469;-87
2023/06/03 07:10:26;;;;;;;7.10;3.83;;;18.40;49.10;;;;;;5009949;28;21210;-86
2023/06/03 07:13:13;;;;;;;16.20;5.30;;;18.50;47.40;;;;;;5013354;28;20499;-85
2023/06/03 07:16:00;;;;;;;19.47;4.40;;;18.60;47.20;;;;;;5017467;28;20424;-86
2023/06/03 07:18:46;;;;;;;5.50;3.53;;;18.60;46.40;;;;;;5010704;28;20443;-85
2023/06/03 07:21:33;;;;;;;9.10;3.90;;;18.70;43.30;;;;;;5010470;28;21096;-85
2023/06/03 07:24:18;;;;;;;15.40;4.23;;;18.80;45.00;;;;;;5012783;28;20832;-85
2023/06/03 07:27:07;;;;;;;6.97;4.57;;;18.90;43.10;;;;;;5007147;28;20424;-86
2023/06/03 07:29:57;;;;;;;5.03;3.60;;;19.00;44.70;;;;;;5008664;28;20452;-85
2023/06/03 07:32:44;;;;;;;7.97;4.07;;;19.00;41.60;;;;;;5011918;28;20445;-88
2023/06/03 07:35:31;;;;;;;15.63;4.93;;;19.00;41.70;;;;;;5010431;28;20577;-87
2023/06/03 07:38:45;;;;;;;5.80;3.83;;;19.10;42.70;;;;;;5011667;28;20423;-86
2023/06/03 07:41:39;;;;;;;7.43;3.80;;;19.10;41.80;;;;;;5005949;28;20450;-85
2023/06/03 07:44:40;;;;;;;11.33;4.27;;;19.20;42.20;;;;;;5011867;28;21016;-85
2023/06/03 07:47:26;;;;;;;13.27;4.13;;;19.30;39.00;;;;;;5009438;28;20445;-87
2023/06/03 07:50:23;;;;;;;8.00;3.77;;;19.40;41.60;;;;;;5014934;28;20432;-86
2023/06/03 07:53:11;;;;;;;13.40;4.53;;;19.40;41.00;;;;;;5014272;28;20450;-86
2023/06/03 07:55:58;;;;;;;8.50;4.10;;;19.40;40.10;;;;;;5024672;28;20423;-85
2023/06/03 07:58:43;;;;;;;6.13;4.10;;;19.50;39.90;;;;;;5018204;28;20441;-85
2023/06/03 08:01:29;;;;;;;6.93;4.03;;;19.50;39.90;;;;;;5006054;28;20454;-86
2023/06/03 08:04:29;;;;;;;7.80;4.20;;;19.50;41.60;;;;;;5013596;28;20466;-87
2023/06/03 08:07:15;;;;;;;10.17;3.97;;;19.60;41.50;;;;;;5010543;28;20442;-86
2023/06/03 08:10:03;;;;;;;9.17;3.90;;;19.70;40.90;;;;;;5012432;28;20534;-84
2023/06/03 08:12:48;;;;;;;12.23;4.20;;;19.80;41.20;;;;;;5004700;28;20453;-86
2023/06/03 08:15:36;;;;;;;14.13;4.97;;;19.90;40.20;;;;;;5016919;28;21224;-86
2023/06/03 08:18:38;;;;;;;7.37;3.90;;;20.00;37.70;;;;;;5000961;28;20441;-86
2023/06/03 08:21:28;;;;;;;7.83;4.63;;;20.10;38.50;;;;;;5007804;28;20456;-87
2023/06/03 08:24:13;;;;;;;8.50;4.23;;;20.10;38.40;;;;;;5012106;28;20465;-88
2023/06/03 08:27:00;;;;;;;5.83;3.80;;;20.10;38.00;;;;;;5008041;28;20441;-86
2023/06/03 08:29:46;;;;;;;7.70;4.10;;;20.20;39.20;;;;;;5009612;28;20455;-88
2023/06/03 08:32:34;;;;;;;7.50;4.10;;;20.10;39.90;;;;;;5024330;28;20596;-85
2023/06/03 08:35:21;;;;;;;7.17;3.87;;;20.10;38.80;;;;;;5023637;28;20586;-88
2023/06/03 08:38:06;;;;;;;7.33;3.80;;;20.10;38.50;;;;;;5005892;28;20437;-87
2023/06/03 08:40:53;;;;;;;11.23;4.00;;;20.10;39.00;;;;;;5015039;28;20532;-88
2023/06/03 08:43:51;;;;;;;10.50;4.80;;;20.10;40.70;;;;;;5014585;28;20553;-87
2023/06/03 08:46:44;;;;;;;7.03;3.67;;;20.20;39.80;;;;;;5011572;28;20441;-87
2023/06/03 08:49:41;;;;;;;11.60;4.33;;;20.30;37.10;;;;;;5018906;28;20461;-88
2023/06/03 08:52:33;;;;;;;6.60;4.10;;;20.40;36.30;;;;;;5013388;28;20437;-87
2023/06/03 08:55:19;;;;;;;4.80;3.53;;;20.50;37.80;;;;;;5015130;28;20581;-89
2023/06/03 08:58:08;;;;;;;8.63;3.67;;;20.60;37.60;;;;;;5013837;28;20520;-88
2023/06/03 09:00:59;;;;;;;8.80;3.97;;;20.70;37.10;;;;;;5006036;28;20438;-86
2023/06/03 09:03:45;;;;;;;7.97;3.97;;;20.90;37.10;;;;;;5021813;28;20452;-87
2023/06/03 09:06:31;;;;;;;9.07;3.80;;;21.00;36.80;;;;;;5019667;28;20522;-88
2023/06/03 09:09:17;;;;;;;7.77;3.80;;;21.10;36.70;;;;;;5019562;28;20538;-88
2023/06/03 09:12:03;;;;;;;6.23;3.80;;;21.20;32.10;;;;;;5014289;28;20413;-88
2023/06/03 09:14:49;;;;;;;6.30;4.27;;;21.30;35.40;;;;;;5014336;28;20472;-88
2023/06/03 09:17:37;;;;;;;7.03;4.47;;;21.40;33.00;;;;;;5016879;28;20446;-88
2023/06/03 09:20:24;;;;;;;11.77;4.73;;;21.50;31.80;;;;;;5017743;28;20451;-88
2023/06/03 09:23:12;;;;;;;6.97;3.87;;;21.60;32.00;;;;;;5018353;28;20576;-88
2023/06/03 09:25:58;;;;;;;8.17;4.87;;;21.60;31.60;;;;;;5014999;28;20441;-88
2023/06/03 09:28:43;;;;;;;9.70;5.30;;;21.60;29.70;;;;;;5016473;28;20466;-88
2023/06/03 09:31:30;;;;;;;13.10;5.57;;;21.60;33.10;;;;;;5006785;28;20445;-86
2023/06/03 09:34:17;;;;;;;8.93;4.47;;;21.60;34.20;;;;;;5023818;28;20468;-88
2023/06/03 09:37:08;;;;;;;11.83;4.27;;;21.80;31.20;;;;;;5022429;28;20491;-87
2023/06/03 09:39:53;;;;;;;6.77;3.43;;;21.80;29.10;;;;;;5019816;28;20437;-88
2023/06/03 09:42:42;;;;;;;10.57;4.10;;;21.90;30.00;;;;;;5017778;28;20438;-88
2023/06/03 09:45:29;;;;;;;7.00;4.30;;;21.90;28.60;;;;;;5019724;28;20465;-88
2023/06/03 09:48:24;;;;;;;7.27;3.70;;;22.00;30.90;;;;;;5024459;28;20440;-87
2023/06/03 09:51:10;;;;;;;5.43;3.87;;;22.10;32.20;;;;;;5022795;28;20452;-88
2023/06/03 09:54:10;;;;;;;8.37;3.33;;;22.20;29.10;;;;;;5017384;28;20563;-88
2023/06/03 09:57:11;;;;;;;6.40;3.97;;;22.30;28.00;;;;;;5023435;28;20441;-88
2023/06/03 10:00:07;;;;;;;6.97;4.30;;;22.30;29.00;;;;;;5022390;28;20452;-87
2023/06/03 10:03:06;;;;;;;8.53;3.83;;;22.30;28.30;;;;;;5020607;28;20441;-88
2023/06/03 10:05:52;;;;;;;10.27;4.80;;;22.40;28.90;;;;;;5017632;28;20824;-88
2023/06/03 10:08:39;;;;;;;10.20;4.13;;;22.50;28.50;;;;;;5024540;28;20565;-88
2023/06/03 10:11:24;;;;;;;5.17;3.73;;;22.50;29.80;;;;;;5017884;28;20430;-88
2023/06/03 10:14:10;;;;;;;7.33;4.90;;;22.60;28.50;;;;;;5020504;28;20473;-87
2023/06/03 10:17:03;;;;;;;8.97;4.13;;;22.70;25.80;;;;;;5021212;28;20487;-88
2023/06/03 10:19:49;;;;;;;9.33;3.70;;;22.70;28.60;;;;;;5025257;28;20536;-88
2023/06/03 10:22:35;;;;;;;11.73;5.53;;;22.70;26.80;;;;;;5023509;28;20460;-87
2023/06/03 10:25:22;;;;;;;4.90;3.90;;;22.70;27.10;;;;;;5012144;28;20460;-87
2023/06/03 10:28:07;;;;;;;7.10;3.90;;;22.80;27.10;;;;;;5030661;28;20523;-88
2023/06/03 10:30:53;;;;;;;6.63;4.23;;;22.90;28.80;;;;;;5026425;28;20449;-88
2023/06/03 10:33:40;;;;;;;9.63;4.33;;;23.00;27.70;;;;;;5026640;28;20591;-87
2023/06/03 10:36:27;;;;;;;6.40;4.07;;;23.10;28.50;;;;;;5026100;28;20520;-87
2023/06/03 10:39:12;;;;;;;7.07;4.33;;;23.30;26.40;;;;;;5021835;28;20512;-88
2023/06/03 10:42:01;;;;;;;12.80;4.77;;;23.40;26.20;;;;;;5026319;28;20452;-87
2023/06/03 10:44:46;;;;;;;5.37;3.90;;;23.30;25.40;;;;;;5025612;28;20497;-88
2023/06/03 10:47:35;;;;;;;15.10;4.77;;;23.40;27.30;;;;;;5019512;28;20485;-88
2023/06/03 10:50:29;;;;;;;9.10;4.10;;;23.40;25.00;;;;;;5023495;28;20472;-88
2023/06/03 10:53:23;;;;;;;13.40;4.30;;;23.50;26.60;;;;;;5017550;28;20446;-88
2023/06/03 10:56:22;;;;;;;8.00;3.77;;;23.60;24.30;;;;;;5023771;28;20933;-88
2023/06/03 10:59:13;;;;;;;8.67;4.47;;;23.60;23.90;;;;;;5023652;28;20441;-87
2023/06/03 11:02:00;;;;;;;7.50;4.30;;;23.60;24.70;;;;;;5012225;28;21512;-88
2023/06/03 11:04:45;;;;;;;9.73;4.50;;;23.60;25.40;;;;;;5021820;28;20473;-87
2023/06/03 11:07:46;;;;;;;9.80;4.13;;;23.70;25.70;;;;;;5024462;28;20525;-88
2023/06/03 11:10:44;;;;;;;11.90;4.90;;;23.70;24.40;;;;;;5028932;28;20458;-87
2023/06/03 11:13:41;;;;;;;6.50;4.43;;;23.90;25.00;;;;;;5025090;28;20447;-87
2023/06/03 11:16:28;;;;;;;7.80;3.97;;;24.00;23.80;;;;;;5019297;28;20998;-88
2023/06/03 11:19:30;;;;;;;8.27;4.43;;;24.00;23.10;;;;;;5020479;28;20435;-88
2023/06/03 11:22:40;;;;;;;8.27;4.53;;;24.00;24.60;;;;;;5024719;28;20583;-88
2023/06/03 11:25:30;;;;;;;8.50;4.77;;;24.10;23.20;;;;;;5019882;28;21022;-88
2023/06/03 11:28:36;;;;;;;8.63;4.27;;;24.30;24.70;;;;;;5014903;28;20500;-88
2023/06/03 11:31:22;;;;;;;9.60;4.60;;;24.40;23.20;;;;;;5013562;28;20448;-89
2023/06/03 11:34:26;;;;;;;9.80;4.70;;;24.50;23.70;;;;;;5017493;28;21000;-88
2023/06/03 11:37:14;;;;;;;7.73;4.47;;;24.60;23.00;;;;;;5019344;28;20461;-88
2023/06/03 11:40:05;;;;;;;7.80;4.97;;;24.50;20.40;;;;;;5019054;28;20483;-88
2023/06/03 11:43:07;;;;;;;11.13;5.17;;;24.50;20.90;;;;;;5018435;28;20454;-88
2023/06/03 11:45:53;;;;;;;7.63;4.00;;;24.50;22.50;;;;;;5017896;28;20461;-88
2023/06/03 11:48:38;;;;;;;13.60;4.57;;;24.70;21.50;;;;;;5013225;28;20456;-87
2023/06/03 11:51:25;;;;;;;6.37;4.10;;;24.70;21.30;;;;;;5020890;28;20430;-87
2023/06/03 11:54:12;;;;;;;9.23;4.13;;;24.70;20.60;;;;;;5016789;28;20466;-88
2023/06/03 11:56:59;;;;;;;5.50;3.87;;;24.70;20.10;;;;;;5017393;28;20527;-89
2023/06/03 11:59:47;;;;;;;9.17;4.93;;;24.70;21.70;;;;;;5013941;28;20569;-88
2023/06/03 12:02:36;;;;;;;15.03;5.20;;;24.80;20.70;;;;;;5014916;28;20450;-88
2023/06/03 12:05:22;;;;;;;7.67;4.50;;;24.90;20.40;;;;;;5020613;28;20609;-87
2023/06/03 12:08:08;;;;;;;6.33;4.77;;;25.00;22.80;;;;;;5020033;28;20947;-87
2023/06/03 12:10:53;;;;;;;9.57;4.27;;;25.10;19.60;;;;;;5023610;28;20525;-85
2023/06/03 12:13:42;;;;;;;9.67;4.90;;;25.20;22.10;;;;;;5014470;28;20992;-88
2023/06/03 12:16:29;;;;;;;6.37;4.67;;;25.30;19.20;;;;;;5019908;28;20447;-88
2023/06/03 12:19:15;;;;;;;7.60;4.33;;;25.30;19.20;;;;;;5017625;28;20440;-88
2023/06/03 12:22:01;;;;;;;10.83;4.47;;;25.30;20.30;;;;;;5013126;28;20509;-88
2023/06/03 12:24:46;;;;;;;6.37;4.53;;;25.50;20.00;;;;;;5013212;28;20473;-87
2023/06/03 12:27:32;;;;;;;8.57;4.30;;;25.60;18.80;;;;;;5019843;28;20567;-88
2023/06/03 12:30:30;;;;;;;7.60;4.83;;;25.60;19.60;;;;;;5016780;28;21035;-87
2023/06/03 12:33:16;;;;;;;8.03;4.70;;;25.70;18.00;;;;;;5009359;28;20528;-89
2023/06/03 12:36:01;;;;;;;9.03;4.23;;;25.70;19.50;;;;;;5014629;28;20457;-88
2023/06/03 12:38:54;;;;;;;8.37;4.50;;;25.70;18.50;;;;;;5011887;28;20458;-88
2023/06/03 12:41:50;;;;;;;7.23;4.63;;;25.80;19.60;;;;;;5005952;28;21031;-86
2023/06/03 12:44:42;;;;;;;7.10;4.90;;;25.90;19.60;;;;;;5016009;28;20488;-92
2023/06/03 12:47:29;;;;;;;7.50;4.67;;;26.00;21.20;;;;;;5015872;28;20815;-91
2023/06/03 12:50:15;;;;;;;14.20;5.00;;;26.20;19.80;;;;;;5016088;28;20480;-90
2023/06/03 12:53:13;;;;;;;7.50;4.83;;;26.20;19.80;;;;;;5010197;28;20511;-89
2023/06/03 12:55:59;;;;;;;9.10;5.00;;;26.10;19.00;;;;;;5012859;28;20541;-90
2023/06/03 12:58:44;;;;;;;9.83;5.40;;;26.10;18.20;;;;;;5015603;28;20460;-90
2023/06/03 13:01:30;;;;;;;8.53;4.60;;;26.20;16.70;;;;;;5009434;28;20458;-90
2023/06/03 13:04:17;;;;;;;8.50;4.70;;;26.00;17.40;;;;;;5012525;28;20517;-89
2023/06/03 13:07:02;;;;;;;8.07;4.53;;;25.70;18.00;;;;;;5008472;28;20827;-89
2023/06/03 13:09:48;;;;;;;8.60;4.60;;;25.60;17.80;;;;;;5010814;28;20468;-89
2023/06/03 13:12:35;;;;;;;10.17;5.50;;;25.60;17.60;;;;;;5006044;28;20442;-89
2023/06/03 13:15:20;;;;;;;12.13;4.50;;;25.70;17.50;;;;;;5006789;28;20472;-89
2023/06/03 13:18:06;;;;;;;5.93;4.03;;;25.80;18.40;;;;;;5011910;28;20450;-90
2023/06/03 13:20:53;;;;;;;9.57;4.60;;;26.00;17.50;;;;;;5015010;28;20967;-91
2023/06/03 13:23:38;;;;;;;9.20;4.57;;;26.10;16.20;;;;;;5014383;28;20480;-89
2023/06/03 13:26:24;;;;;;;20.33;5.23;;;26.30;18.00;;;;;;5015953;28;20445;-90
2023/06/03 13:29:09;;;;;;;5.80;4.37;;;26.30;17.10;;;;;;5012591;28;20985;-89
2023/06/03 13:31:55;;;;;;;9.03;4.37;;;26.20;16.80;;;;;;5016929;28;20446;-90
2023/06/03 13:34:41;;;;;;;11.60;4.50;;;26.20;17.00;;;;;;5005711;28;20633;-90
2023/06/03 13:37:28;;;;;;;8.00;4.40;;;26.30;16.90;;;;;;5015943;28;20452;-90
2023/06/03 13:40:14;;;;;;;10.13;5.07;;;26.40;17.40;;;;;;5011559;28;20572;-89
2023/06/03 13:43:01;;;;;;;9.70;4.80;;;26.50;16.50;;;;;;5008845;28;20450;-89
2023/06/03 13:45:47;;;;;;;7.97;5.53;;;26.70;17.40;;;;;;5009701;28;21033;-90
2023/06/03 13:48:32;;;;;;;10.17;4.03;;;26.80;16.60;;;;;;5005018;28;20488;-90
2023/06/03 13:51:18;;;;;;;7.13;4.90;;;26.60;16.50;;;;;;5012560;28;20466;-89
2023/06/03 13:54:05;;;;;;;8.50;5.00;;;26.20;16.70;;;;;;5011374;28;20539;-91
2023/06/03 13:56:53;;;;;;;13.23;5.00;;;25.90;16.90;;;;;;5014069;28;20523;-90
2023/06/03 13:59:39;;;;;;;6.63;4.60;;;25.70;16.20;;;;;;5024324;28;20999;-90
2023/06/03 14:02:25;;;;;;;7.73;4.70;;;25.60;17.20;;;;;;5009155;28;20453;-85
2023/06/03 14:05:11;;;;;;;7.07;4.93;;;25.80;17.20;;;;;;5007702;28;20601;-88
2023/06/03 14:07:56;;;;;;;10.20;4.30;;;25.90;17.80;;;;;;5011495;28;20931;-86
2023/06/03 14:10:43;;;;;;;8.60;5.10;;;26.20;16.30;;;;;;5009665;28;20519;-87
2023/06/03 14:13:29;;;;;;;6.17;4.57;;;26.30;14.00;;;;;;5013026;28;20513;-88
2023/06/03 14:16:15;;;;;;;11.93;4.60;;;26.30;14.60;;;;;;5014202;28;20452;-84
2023/06/03 14:19:00;;;;;;;7.07;4.17;;;26.40;15.70;;;;;;5010638;28;21545;-89
2023/06/03 14:21:46;;;;;;;9.87;5.20;;;26.40;15.50;;;;;;5006925;28;20825;-88
2023/06/03 14:24:31;;;;;;;15.43;4.83;;;26.60;16.40;;;;;;5002564;28;20523;-87
2023/06/03 14:27:19;;;;;;;7.40;4.63;;;26.70;14.60;;;;;;5004873;28;20441;-87
2023/06/03 14:30:05;;;;;;;9.27;4.37;;;26.80;16.10;;;;;;5010312;28;20465;-88